createdAt,value
2017-05-17T00:00:11.949Z,0
2017-05-17T00:01:22.212Z,0
2017-05-17T00:02:32.467Z,0
2017-05-17T00:03:42.732Z,0
2017-05-17T00:04:53.044Z,0
2017-05-17T00:06:03.305Z,0
2017-05-17T00:07:13.562Z,0
2017-05-17T00:08:23.826Z,0
2017-05-17T00:09:33.780Z,0
2017-05-17T00:10:43.727Z,0
2017-05-17T00:11:53.993Z,0
2017-05-17T00:13:04.258Z,0
2017-05-17T00:14:14.522Z,0
2017-05-17T00:15:24.157Z,0
2017-05-17T00:16:34.421Z,0
2017-05-17T00:17:44.682Z,0
2017-05-17T00:18:54.967Z,0
2017-05-17T00:20:05.231Z,0
2017-05-17T00:21:15.182Z,0
2017-05-17T00:22:25.439Z,0
2017-05-17T00:23:35.698Z,0
2017-05-17T00:24:45.958Z,0
2017-05-17T00:25:56.218Z,0
2017-05-17T00:27:06.168Z,0
2017-05-17T00:28:16.492Z,0
2017-05-17T00:29:26.441Z,0
2017-05-17T00:30:36.701Z,0
2017-05-17T00:31:47.016Z,0
2017-05-17T00:32:57.276Z,0
2017-05-17T00:34:07.542Z,0
2017-05-17T00:35:17.801Z,0
2017-05-17T00:36:28.062Z,0
2017-05-17T00:37:38.001Z,0
2017-05-17T00:38:48.259Z,0
2017-05-17T00:39:58.212Z,0
2017-05-17T00:41:08.470Z,0
2017-05-17T00:42:18.790Z,0
2017-05-17T00:43:29.060Z,0
2017-05-17T00:44:39.325Z,0
2017-05-17T00:45:49.273Z,0
2017-05-17T00:46:59.531Z,0
2017-05-17T00:48:09.798Z,0
2017-05-17T00:49:20.068Z,0
2017-05-17T00:50:30.336Z,0
2017-05-17T00:51:40.599Z,0
2017-05-17T00:52:50.867Z,0
2017-05-17T00:54:01.142Z,0
2017-05-17T00:55:11.415Z,0
2017-05-17T00:56:21.673Z,0
2017-05-17T00:57:31.941Z,0
2017-05-17T00:58:42.208Z,0
2017-05-17T00:59:52.466Z,0
2017-05-17T01:01:02.724Z,0
2017-05-17T01:02:12.988Z,0
2017-05-17T01:03:23.248Z,0
2017-05-17T01:04:33.509Z,0
2017-05-17T01:05:43.774Z,0
2017-05-17T01:06:54.084Z,0
2017-05-17T01:08:04.037Z,0
2017-05-17T01:09:14.299Z,0
2017-05-17T01:10:24.248Z,0
2017-05-17T01:11:34.514Z,0
2017-05-17T01:12:44.780Z,0
2017-05-17T01:13:55.047Z,0
2017-05-17T01:15:05.313Z,0
2017-05-17T01:16:15.259Z,0
2017-05-17T01:17:25.208Z,0
2017-05-17T01:18:35.471Z,0
2017-05-17T01:19:45.734Z,0
2017-05-17T01:20:56.000Z,0
2017-05-17T01:22:06.261Z,0
2017-05-17T01:23:16.848Z,0
2017-05-17T01:24:27.126Z,0
2017-05-17T01:25:37.384Z,0
2017-05-17T01:26:47.647Z,0
2017-05-17T01:27:57.966Z,0
2017-05-17T01:29:08.233Z,0
2017-05-17T01:30:18.179Z,0
2017-05-17T01:31:28.435Z,0
2017-05-17T01:32:38.705Z,0
2017-05-17T01:33:48.651Z,0
2017-05-17T01:34:58.932Z,0
2017-05-17T01:36:09.199Z,0
2017-05-17T01:37:19.462Z,0
2017-05-17T01:38:29.737Z,0
2017-05-17T01:39:40.005Z,0
2017-05-17T01:40:50.270Z,0
2017-05-17T01:42:00.537Z,0
2017-05-17T01:43:10.803Z,0
2017-05-17T01:44:21.066Z,4
2017-05-17T01:45:31.328Z,4
2017-05-17T01:46:41.592Z,4
2017-05-17T01:47:51.863Z,4
2017-05-17T01:49:01.810Z,4
2017-05-17T01:50:12.083Z,0
2017-05-17T01:51:22.346Z,0
2017-05-17T01:52:32.299Z,0
2017-05-17T01:53:42.566Z,4
2017-05-17T01:54:52.825Z,4
2017-05-17T01:56:02.777Z,4
2017-05-17T01:57:12.411Z,4
2017-05-17T01:58:22.673Z,4
2017-05-17T01:59:32.630Z,8
2017-05-17T02:00:42.891Z,4
2017-05-17T02:01:53.157Z,8
2017-05-17T02:03:03.428Z,8
2017-05-17T02:04:13.695Z,8
2017-05-17T02:05:23.647Z,8
2017-05-17T02:06:33.906Z,8
2017-05-17T02:07:44.165Z,12
2017-05-17T02:08:54.127Z,8
2017-05-17T02:10:04.392Z,12
2017-05-17T02:11:14.651Z,8
2017-05-17T02:12:24.916Z,16
2017-05-17T02:13:34.871Z,16
2017-05-17T02:14:45.138Z,16
2017-05-17T02:15:55.398Z,20
2017-05-17T02:17:05.347Z,20
2017-05-17T02:18:15.605Z,20
2017-05-17T02:19:25.242Z,20
2017-05-17T02:20:35.198Z,24
2017-05-17T02:21:45.455Z,24
2017-05-17T02:22:55.725Z,28
2017-05-17T02:24:05.986Z,32
2017-05-17T02:25:16.249Z,36
2017-05-17T02:26:26.512Z,36
2017-05-17T02:27:36.461Z,44
2017-05-17T02:28:46.727Z,48
2017-05-17T02:29:56.996Z,48
2017-05-17T02:31:07.258Z,52
2017-05-17T02:32:17.205Z,56
2017-05-17T02:33:27.467Z,56
2017-05-17T02:34:37.734Z,60
2017-05-17T02:35:47.370Z,64
2017-05-17T02:36:57.631Z,76
2017-05-17T02:38:07.943Z,88
2017-05-17T02:39:17.587Z,96
2017-05-17T02:40:27.845Z,100
2017-05-17T02:41:38.110Z,104
2017-05-17T02:42:48.057Z,108
2017-05-17T02:43:58.319Z,112
2017-05-17T02:45:07.963Z,108
2017-05-17T02:46:17.912Z,108
2017-05-17T02:47:28.174Z,104
2017-05-17T02:48:38.429Z,116
2017-05-17T02:49:48.693Z,128
2017-05-17T02:50:58.960Z,132
2017-05-17T02:52:09.227Z,136
2017-05-17T02:53:19.508Z,144
2017-05-17T02:54:29.771Z,152
2017-05-17T02:55:40.033Z,164
2017-05-17T02:56:49.984Z,172
2017-05-17T02:58:00.248Z,168
2017-05-17T02:59:10.192Z,160
2017-05-17T03:00:20.451Z,164
2017-05-17T03:01:30.709Z,168
2017-05-17T03:02:40.968Z,164
2017-05-17T03:03:51.232Z,172
2017-05-17T03:05:01.501Z,192
2017-05-17T03:06:11.455Z,216
2017-05-17T03:07:21.720Z,256
2017-05-17T03:08:31.720Z,280
2017-05-17T03:09:41.984Z,284
2017-05-17T03:10:52.243Z,284
2017-05-17T03:12:02.554Z,276
2017-05-17T03:13:12.507Z,264
2017-05-17T03:14:22.768Z,252
2017-05-17T03:15:32.713Z,256
2017-05-17T03:16:42.977Z,256
2017-05-17T03:17:53.239Z,260
2017-05-17T03:19:03.497Z,288
2017-05-17T03:20:13.444Z,292
2017-05-17T03:21:23.705Z,280
2017-05-17T03:22:33.974Z,280
2017-05-17T03:23:44.237Z,300
2017-05-17T03:24:54.508Z,332
2017-05-17T03:26:04.770Z,368
2017-05-17T03:27:14.724Z,408
2017-05-17T03:28:24.677Z,444
2017-05-17T03:29:34.623Z,484
2017-05-17T03:30:44.885Z,516
2017-05-17T03:31:55.147Z,520
2017-05-17T03:33:05.095Z,524
2017-05-17T03:34:15.047Z,504
2017-05-17T03:35:24.999Z,492
2017-05-17T03:36:35.259Z,472
2017-05-17T03:37:45.229Z,444
2017-05-17T03:38:55.494Z,412
2017-05-17T03:40:05.457Z,396
2017-05-17T03:41:15.721Z,412
2017-05-17T03:42:25.979Z,464
2017-05-17T03:43:36.550Z,540
2017-05-17T03:44:46.503Z,612
2017-05-17T03:45:56.769Z,684
2017-05-17T03:47:07.031Z,720
2017-05-17T03:48:17.299Z,768
2017-05-17T03:49:27.566Z,808
2017-05-17T03:50:37.513Z,840
2017-05-17T03:51:47.777Z,876
2017-05-17T03:52:58.043Z,928
2017-05-17T03:54:08.313Z,984
2017-05-17T03:55:18.571Z,1044
2017-05-17T03:56:28.832Z,1088
2017-05-17T03:57:39.100Z,1068
2017-05-17T03:58:49.369Z,1020
2017-05-17T03:59:59.324Z,1000
2017-05-17T04:01:09.597Z,952
2017-05-17T04:02:19.855Z,884
2017-05-17T04:03:29.803Z,828
2017-05-17T04:04:40.126Z,792
2017-05-17T04:05:50.392Z,776
2017-05-17T04:07:00.346Z,784
2017-05-17T04:08:10.289Z,808
2017-05-17T04:09:20.240Z,836
2017-05-17T04:10:30.505Z,800
2017-05-17T04:11:40.771Z,740
2017-05-17T04:12:50.719Z,696
2017-05-17T04:14:00.997Z,728
2017-05-17T04:15:11.265Z,828
2017-05-17T04:16:21.529Z,904
2017-05-17T04:17:31.785Z,916
2017-05-17T04:18:42.057Z,944
2017-05-17T04:19:52.332Z,932
2017-05-17T04:21:02.590Z,872
2017-05-17T04:22:12.538Z,824
2017-05-17T04:23:22.800Z,812
2017-05-17T04:24:33.067Z,808
2017-05-17T04:25:43.331Z,768
2017-05-17T04:26:53.596Z,744
2017-05-17T04:28:03.858Z,776
2017-05-17T04:29:14.119Z,848
2017-05-17T04:30:24.066Z,916
2017-05-17T04:31:33.705Z,996
2017-05-17T04:32:43.968Z,1124
2017-05-17T04:33:54.232Z,1220
2017-05-17T04:35:04.496Z,1212
2017-05-17T04:36:14.757Z,1148
2017-05-17T04:37:24.389Z,1112
2017-05-17T04:38:34.338Z,1164
2017-05-17T04:39:44.603Z,1332
2017-05-17T04:40:54.867Z,1604
2017-05-17T04:42:05.135Z,2020
2017-05-17T04:43:15.400Z,2464
2017-05-17T04:44:25.662Z,2796
2017-05-17T04:45:35.612Z,2980
2017-05-17T04:46:45.873Z,3020
2017-05-17T04:47:56.139Z,2924
2017-05-17T04:49:06.396Z,2976
2017-05-17T04:50:16.336Z,3056
2017-05-17T04:51:26.589Z,3068
2017-05-17T04:52:36.542Z,3080
2017-05-17T04:53:46.812Z,3192
2017-05-17T04:54:57.087Z,3268
2017-05-17T04:56:07.043Z,3248
2017-05-17T04:57:17.311Z,3160
2017-05-17T04:58:27.567Z,3064
2017-05-17T04:59:37.831Z,3120
2017-05-17T05:00:48.094Z,3360
2017-05-17T05:01:58.364Z,3456
2017-05-17T05:03:08.628Z,3324
2017-05-17T05:04:18.888Z,3176
2017-05-17T05:05:29.153Z,3100
2017-05-17T05:06:39.426Z,3160
2017-05-17T05:07:49.691Z,3144
2017-05-17T05:08:59.974Z,2920
2017-05-17T05:10:10.282Z,2536
2017-05-17T05:11:20.226Z,2316
2017-05-17T05:12:30.539Z,2152
2017-05-17T05:13:40.814Z,2028
2017-05-17T05:14:50.761Z,1988
2017-05-17T05:16:01.029Z,2068
2017-05-17T05:17:11.295Z,2176
2017-05-17T05:18:20.927Z,2472
2017-05-17T05:19:30.877Z,3088
2017-05-17T05:20:41.143Z,4032
2017-05-17T05:21:51.414Z,4172
2017-05-17T05:23:01.689Z,4344
2017-05-17T05:24:11.954Z,3300
2017-05-17T05:25:22.220Z,2680
2017-05-17T05:26:32.170Z,2388
2017-05-17T05:27:42.449Z,2560
2017-05-17T05:28:52.711Z,3096
2017-05-17T05:30:02.974Z,3624
2017-05-17T05:31:13.239Z,4052
2017-05-17T05:32:23.212Z,4564
2017-05-17T05:33:33.538Z,4864
2017-05-17T05:34:43.809Z,4880
2017-05-17T05:35:54.084Z,5076
2017-05-17T05:37:04.363Z,4676
2017-05-17T05:38:14.313Z,4676
2017-05-17T05:39:24.263Z,4716
2017-05-17T05:40:36.532Z,4620
2017-05-17T05:41:46.170Z,4524
2017-05-17T05:42:56.437Z,4504
2017-05-17T05:44:06.763Z,4768
2017-05-17T05:45:17.033Z,4928
2017-05-17T05:46:27.300Z,5080
2017-05-17T05:47:37.292Z,5132
2017-05-17T05:48:47.564Z,5052
2017-05-17T05:49:57.825Z,5088
2017-05-17T05:51:08.096Z,5300
2017-05-17T05:52:21.002Z,5348
2017-05-17T05:53:31.269Z,5260
2017-05-17T05:54:41.535Z,5208
2017-05-17T05:55:51.801Z,4888
2017-05-17T05:57:02.068Z,4612
2017-05-17T05:58:12.011Z,4388
2017-05-17T05:59:21.963Z,4612
2017-05-17T06:00:32.231Z,5476
2017-05-17T06:01:42.508Z,5160
2017-05-17T06:02:52.776Z,6004
2017-05-17T06:04:03.099Z,6184
2017-05-17T06:05:13.369Z,7008
2017-05-17T06:06:23.317Z,7488
2017-05-17T06:07:33.575Z,7456
2017-05-17T06:08:43.530Z,6356
2017-05-17T06:09:53.791Z,5424
2017-05-17T06:11:04.060Z,6868
2017-05-17T06:12:14.323Z,7236
2017-05-17T06:13:24.270Z,7740
2017-05-17T06:14:34.541Z,8208
2017-05-17T06:15:44.805Z,8064
2017-05-17T06:16:54.758Z,6668
2017-05-17T06:18:04.722Z,6840
2017-05-17T06:19:14.987Z,7708
2017-05-17T06:20:25.255Z,7464
2017-05-17T06:21:35.527Z,8232
2017-05-17T06:22:45.791Z,11096
2017-05-17T06:23:56.058Z,10108
2017-05-17T06:25:06.012Z,9092
2017-05-17T06:26:16.024Z,8176
2017-05-17T06:27:26.290Z,8028
2017-05-17T06:28:36.556Z,7584
2017-05-17T06:29:46.511Z,7404
2017-05-17T06:30:56.477Z,7532
2017-05-17T06:32:06.422Z,7784
2017-05-17T06:33:16.378Z,7896
2017-05-17T06:34:26.654Z,8616
2017-05-17T06:35:36.926Z,8360
2017-05-17T06:36:47.199Z,7796
2017-05-17T06:37:57.153Z,7604
2017-05-17T06:39:07.102Z,7548
2017-05-17T06:40:17.061Z,6668
2017-05-17T06:41:27.329Z,6360
2017-05-17T06:42:37.601Z,5700
2017-05-17T06:43:47.866Z,6292
2017-05-17T06:44:58.141Z,7684
2017-05-17T06:46:08.408Z,9572
2017-05-17T06:47:18.679Z,9296
2017-05-17T06:48:28.948Z,10020
2017-05-17T06:49:39.221Z,10668
2017-05-17T06:50:49.484Z,10736
2017-05-17T06:51:59.751Z,10452
2017-05-17T06:53:09.698Z,9888
2017-05-17T06:54:19.654Z,9224
2017-05-17T06:55:29.925Z,11236
2017-05-17T06:56:40.205Z,10504
2017-05-17T06:57:50.474Z,11264
2017-05-17T06:59:00.738Z,10524
2017-05-17T07:00:11.009Z,8676
2017-05-17T07:01:21.282Z,7200
2017-05-17T07:02:31.547Z,6920
2017-05-17T07:03:41.832Z,6896
2017-05-17T07:04:52.102Z,7708
2017-05-17T07:06:02.369Z,7872
2017-05-17T07:07:12.332Z,7532
2017-05-17T07:08:22.598Z,7276
2017-05-17T07:09:32.867Z,6944
2017-05-17T07:10:42.817Z,6804
2017-05-17T07:11:53.081Z,7412
2017-05-17T07:13:03.356Z,9164
2017-05-17T07:14:13.305Z,11088
2017-05-17T07:15:23.573Z,9460
2017-05-17T07:16:33.846Z,8372
2017-05-17T07:17:44.118Z,8216
2017-05-17T07:18:54.386Z,7456
2017-05-17T07:20:04.673Z,6364
2017-05-17T07:21:14.946Z,8000
2017-05-17T07:22:25.209Z,8336
2017-05-17T07:23:35.478Z,8068
2017-05-17T07:24:45.435Z,8564
2017-05-17T07:25:55.389Z,9280
2017-05-17T07:27:05.699Z,8856
2017-05-17T07:28:15.973Z,8568
2017-05-17T07:29:26.247Z,8704
2017-05-17T07:30:36.196Z,8620
2017-05-17T07:31:46.460Z,8568
2017-05-17T07:32:56.743Z,7284
2017-05-17T07:34:07.009Z,8936
2017-05-17T07:35:17.279Z,9592
2017-05-17T07:36:27.549Z,10856
2017-05-17T07:37:37.812Z,10992
2017-05-17T07:38:48.082Z,11236
2017-05-17T07:39:58.034Z,10732
2017-05-17T07:41:08.300Z,8608
2017-05-17T07:42:18.248Z,9488
2017-05-17T07:43:28.515Z,8500
2017-05-17T07:44:38.798Z,10868
2017-05-17T07:45:49.063Z,12160
2017-05-17T07:46:59.329Z,11720
2017-05-17T07:48:09.604Z,9576
2017-05-17T07:49:19.869Z,9804
2017-05-17T07:50:30.133Z,10176
2017-05-17T07:51:40.400Z,9460
2017-05-17T07:52:50.667Z,9276
2017-05-17T07:54:00.934Z,9404
2017-05-17T07:55:11.201Z,9544
2017-05-17T07:56:20.840Z,9640
2017-05-17T07:57:31.109Z,9588
2017-05-17T07:58:41.376Z,9520
2017-05-17T07:59:51.645Z,10648
2017-05-17T08:01:01.922Z,14116
2017-05-17T08:02:12.191Z,10700
2017-05-17T08:03:22.149Z,9200
2017-05-17T08:04:32.430Z,8656
2017-05-17T08:05:42.696Z,7424
2017-05-17T08:06:52.652Z,9060
2017-05-17T08:08:02.913Z,7984
2017-05-17T08:09:12.879Z,7048
2017-05-17T08:10:22.833Z,5732
2017-05-17T08:11:32.788Z,5780
2017-05-17T08:12:42.739Z,8068
2017-05-17T08:13:53.017Z,7172
2017-05-17T08:15:02.967Z,5976
2017-05-17T08:16:12.288Z,5896
2017-05-17T08:17:21.929Z,5812
2017-05-17T08:18:31.896Z,5952
2017-05-17T08:19:42.174Z,6000
2017-05-17T08:20:52.459Z,5948
2017-05-17T08:22:02.731Z,6404
2017-05-17T08:23:12.996Z,6652
2017-05-17T08:24:23.268Z,6396
2017-05-17T08:25:33.535Z,6444
2017-05-17T08:26:43.491Z,7056
2017-05-17T08:27:53.450Z,7136
2017-05-17T08:29:03.719Z,6532
2017-05-17T08:30:13.992Z,7408
2017-05-17T08:31:23.948Z,7460
2017-05-17T08:32:34.217Z,7540
2017-05-17T08:33:44.176Z,7204
2017-05-17T08:34:54.444Z,7520
2017-05-17T08:36:04.405Z,7652
2017-05-17T08:37:14.678Z,8992
2017-05-17T08:38:24.640Z,9808
2017-05-17T08:39:34.908Z,8284
2017-05-17T08:40:45.183Z,9376
2017-05-17T08:41:55.136Z,11080
2017-05-17T08:43:05.403Z,10744
2017-05-17T08:44:15.360Z,8508
2017-05-17T08:45:25.674Z,6136
2017-05-17T08:46:35.939Z,7832
2017-05-17T08:47:46.202Z,8356
2017-05-17T08:48:56.468Z,7060
2017-05-17T08:50:06.740Z,6188
2017-05-17T08:51:17.011Z,6308
2017-05-17T08:52:27.276Z,7500
2017-05-17T08:53:37.541Z,8488
2017-05-17T08:54:47.179Z,7904
2017-05-17T08:55:57.145Z,8280
2017-05-17T08:57:07.413Z,7928
2017-05-17T08:58:17.693Z,8036
2017-05-17T08:59:27.962Z,8996
2017-05-17T09:00:37.917Z,9104
2017-05-17T09:01:48.188Z,8732
2017-05-17T09:02:58.456Z,8036
2017-05-17T09:04:08.730Z,8948
2017-05-17T09:05:19.000Z,8144
2017-05-17T09:06:28.645Z,8168
2017-05-17T09:07:38.923Z,8432
2017-05-17T09:08:49.193Z,11060
2017-05-17T09:09:59.459Z,11060
2017-05-17T09:11:09.420Z,11244
2017-05-17T09:12:19.684Z,12424
2017-05-17T09:13:29.954Z,14484
2017-05-17T09:14:40.224Z,13504
2017-05-17T09:15:50.503Z,10164
2017-05-17T09:17:00.454Z,11128
2017-05-17T09:18:10.778Z,15484
2017-05-17T09:19:20.746Z,15060
2017-05-17T09:20:30.705Z,12740
2017-05-17T09:21:40.971Z,12960
2017-05-17T09:22:50.925Z,14500
2017-05-17T09:24:01.190Z,15880
2017-05-17T09:25:11.454Z,16576
2017-05-17T09:26:21.409Z,16800
2017-05-17T09:27:31.681Z,16736
2017-05-17T09:28:41.638Z,16064
2017-05-17T09:29:51.598Z,15816
2017-05-17T09:31:01.876Z,16088
2017-05-17T09:32:11.518Z,17248
2017-05-17T09:33:21.472Z,16960
2017-05-17T09:34:31.740Z,15848
2017-05-17T09:35:42.019Z,15808
2017-05-17T09:36:52.288Z,15960
2017-05-17T09:38:02.562Z,14176
2017-05-17T09:39:12.855Z,13620
2017-05-17T09:40:23.122Z,14004
2017-05-17T09:41:33.392Z,14504
2017-05-17T09:42:43.664Z,14596
2017-05-17T09:43:53.941Z,15624
2017-05-17T09:45:04.221Z,15268
2017-05-17T09:46:14.505Z,14604
2017-05-17T09:47:24.474Z,14512
2017-05-17T09:48:34.748Z,13092
2017-05-17T09:49:45.035Z,12556
2017-05-17T09:50:55.311Z,11388
2017-05-17T09:52:05.582Z,10076
2017-05-17T09:53:15.541Z,10772
2017-05-17T09:54:25.812Z,11836
2017-05-17T09:55:36.089Z,12432
2017-05-17T09:56:46.363Z,10644
2017-05-17T09:57:56.641Z,14488
2017-05-17T09:59:19.647Z,12364
2017-05-17T10:00:29.917Z,13452
2017-05-17T10:01:39.871Z,13120
2017-05-17T10:02:50.138Z,11000
2017-05-17T10:04:00.407Z,12396
2017-05-17T10:05:10.048Z,10088
2017-05-17T10:06:20.328Z,8888
2017-05-17T10:07:30.284Z,7936
2017-05-17T10:08:40.551Z,5420
2017-05-17T10:09:50.503Z,4972
2017-05-17T10:11:00.772Z,6884
2017-05-17T10:12:10.790Z,6260
2017-05-17T10:13:21.061Z,5000
2017-05-17T10:14:31.330Z,4360
2017-05-17T10:15:41.286Z,6328
2017-05-17T10:16:51.562Z,8344
2017-05-17T10:18:01.828Z,8656
2017-05-17T10:19:11.790Z,9568
2017-05-17T10:20:21.749Z,11140
2017-05-17T10:21:32.020Z,13764
2017-05-17T10:22:42.283Z,13272
2017-05-17T10:23:52.557Z,13296
2017-05-17T10:25:02.513Z,13388
2017-05-17T10:26:12.467Z,11236
2017-05-17T10:27:22.108Z,12124
2017-05-17T10:28:32.063Z,6500
2017-05-17T10:29:42.325Z,11244
2017-05-17T10:30:52.598Z,11832
2017-05-17T10:32:02.864Z,10664
2017-05-17T10:33:12.546Z,10944
2017-05-17T10:34:22.502Z,12392
2017-05-17T10:35:32.777Z,14800
2017-05-17T10:36:43.070Z,17440
2017-05-17T10:37:53.335Z,16004
2017-05-17T10:39:03.297Z,13812
2017-05-17T10:40:13.576Z,16060
2017-05-17T10:41:23.846Z,17344
2017-05-17T10:42:34.122Z,15440
2017-05-17T10:43:44.397Z,13488
2017-05-17T10:44:54.358Z,16304
2017-05-17T10:46:04.625Z,19008
2017-05-17T10:47:14.268Z,16168
2017-05-17T10:48:24.537Z,14000
2017-05-17T10:49:35.105Z,14704
2017-05-17T10:50:45.371Z,17472
2017-05-17T10:51:55.321Z,16672
2017-05-17T10:53:05.594Z,12020
2017-05-17T10:54:15.861Z,15048
2017-05-17T10:55:26.144Z,11116
2017-05-17T10:56:36.099Z,16992
2017-05-17T10:57:46.370Z,14800
2017-05-17T10:58:56.646Z,14528
2017-05-17T11:00:06.604Z,16736
2017-05-17T11:01:16.563Z,18304
2017-05-17T11:02:26.834Z,18560
2017-05-17T11:03:37.110Z,19648
2017-05-17T11:04:47.383Z,19520
2017-05-17T11:05:57.652Z,18048
2017-05-17T11:07:07.923Z,17120
2017-05-17T11:08:18.201Z,11184
2017-05-17T11:09:28.488Z,10496
2017-05-17T11:10:38.760Z,11880
2017-05-17T11:11:49.037Z,18656
2017-05-17T11:12:59.363Z,18752
2017-05-17T11:14:09.025Z,19680
2017-05-17T11:15:18.987Z,15660
2017-05-17T11:16:29.257Z,11736
2017-05-17T11:17:39.528Z,13832
2017-05-17T11:18:49.804Z,12272
2017-05-17T11:19:59.761Z,22784
2017-05-17T11:21:10.036Z,22336
2017-05-17T11:22:20.309Z,22080
2017-05-17T11:23:30.590Z,23808
2017-05-17T11:24:40.857Z,24288
2017-05-17T11:25:51.125Z,24864
2017-05-17T11:27:01.408Z,26368
2017-05-17T11:28:11.053Z,25152
2017-05-17T11:29:21.010Z,25728
2017-05-17T11:30:30.651Z,24960
2017-05-17T11:31:40.927Z,24064
2017-05-17T11:32:50.887Z,21664
2017-05-17T11:34:01.215Z,17248
2017-05-17T11:35:11.487Z,16768
2017-05-17T11:36:21.443Z,13980
2017-05-17T11:37:31.711Z,9336
2017-05-17T11:38:41.679Z,9940
2017-05-17T11:39:51.957Z,11072
2017-05-17T11:41:02.225Z,11596
2017-05-17T11:42:12.193Z,14616
2017-05-17T11:43:22.151Z,13580
2017-05-17T11:44:32.108Z,11240
2017-05-17T11:45:42.390Z,9840
2017-05-17T11:46:52.664Z,9412
2017-05-17T11:48:02.622Z,14568
2017-05-17T11:49:12.898Z,14152
2017-05-17T11:50:23.173Z,13772
2017-05-17T11:51:33.443Z,12988
2017-05-17T11:52:43.713Z,10060
2017-05-17T11:53:53.989Z,11400
2017-05-17T11:55:03.952Z,10464
2017-05-17T11:56:13.907Z,6568
2017-05-17T11:57:24.182Z,6244
2017-05-17T11:58:34.139Z,6440
2017-05-17T11:59:44.425Z,8420
2017-05-17T12:00:54.703Z,12852
2017-05-17T12:02:04.983Z,16608
2017-05-17T12:03:15.248Z,15868
2017-05-17T12:04:25.222Z,17184
2017-05-17T12:05:35.487Z,17536
2017-05-17T12:06:45.754Z,12752
2017-05-17T12:07:56.029Z,7448
2017-05-17T12:09:05.988Z,8688
2017-05-17T12:10:15.656Z,6968
2017-05-17T12:11:25.616Z,7040
2017-05-17T12:12:35.883Z,13332
2017-05-17T12:13:45.531Z,14728
2017-05-17T12:14:55.801Z,13672
2017-05-17T12:16:06.070Z,16168
2017-05-17T12:17:16.026Z,14496
2017-05-17T12:18:25.983Z,14072
2017-05-17T12:19:36.249Z,16864
2017-05-17T12:20:46.526Z,16640
2017-05-17T12:21:56.793Z,12860
2017-05-17T12:23:07.067Z,15420
2017-05-17T12:24:17.336Z,15536
2017-05-17T12:25:27.656Z,15652
2017-05-17T12:26:37.936Z,17088
2017-05-17T12:27:47.889Z,13068
2017-05-17T12:28:58.165Z,9144
2017-05-17T12:30:08.435Z,10628
2017-05-17T12:31:18.708Z,11168
2017-05-17T12:32:28.982Z,8948
2017-05-17T12:33:39.264Z,8716
2017-05-17T12:34:49.535Z,10264
2017-05-17T12:35:59.808Z,9380
2017-05-17T12:37:09.767Z,10108
2017-05-17T12:38:20.056Z,11468
2017-05-17T12:39:29.704Z,11820
2017-05-17T12:40:39.977Z,9884
2017-05-17T12:41:49.935Z,9896
2017-05-17T12:42:59.894Z,7132
2017-05-17T12:44:09.864Z,8648
2017-05-17T12:45:20.141Z,8900
2017-05-17T12:46:30.406Z,10512
2017-05-17T12:47:40.673Z,10724
2017-05-17T12:48:50.630Z,9684
2017-05-17T12:50:00.592Z,9512
2017-05-17T12:51:10.229Z,7528
2017-05-17T12:52:20.182Z,9748
2017-05-17T12:53:30.453Z,9384
2017-05-17T12:54:40.731Z,9024
2017-05-17T12:55:51.003Z,8212
2017-05-17T12:57:00.954Z,7248
2017-05-17T12:58:10.909Z,7156
2017-05-17T12:59:20.877Z,11196
2017-05-17T13:00:30.836Z,12340
2017-05-17T13:01:41.113Z,13620
2017-05-17T13:02:50.758Z,13456
2017-05-17T13:04:01.032Z,11448
2017-05-17T13:05:10.673Z,10344
2017-05-17T13:06:20.939Z,14632
2017-05-17T13:07:31.218Z,13784
2017-05-17T13:08:41.172Z,14400
2017-05-17T13:09:51.436Z,14800
2017-05-17T13:11:01.710Z,12992
2017-05-17T13:12:11.667Z,15788
2017-05-17T13:13:21.358Z,15740
2017-05-17T13:14:31.637Z,15716
2017-05-17T13:15:41.598Z,18496
2017-05-17T13:16:51.609Z,23904
2017-05-17T13:18:01.576Z,27584
2017-05-17T13:19:11.536Z,24032
2017-05-17T13:20:21.486Z,22880
2017-05-17T13:21:31.755Z,25440
2017-05-17T13:22:42.025Z,25408
2017-05-17T13:23:52.304Z,21536
2017-05-17T13:25:01.947Z,21056
2017-05-17T13:26:11.588Z,22624
2017-05-17T13:27:21.544Z,21568
2017-05-17T13:28:31.811Z,22688
2017-05-17T13:29:41.459Z,24544
2017-05-17T13:30:51.736Z,23872
2017-05-17T13:32:02.016Z,24160
2017-05-17T13:33:12.295Z,23232
2017-05-17T13:34:22.303Z,26976
2017-05-17T13:35:32.575Z,53856
2017-05-17T13:36:42.842Z,37184
2017-05-17T13:37:53.121Z,31264
2017-05-17T13:39:03.396Z,34304
2017-05-17T13:40:13.662Z,69280
2017-05-17T13:41:23.937Z,88544
2017-05-17T13:42:34.205Z,54784
2017-05-17T13:43:44.475Z,42720
2017-05-17T13:44:54.806Z,92544
2017-05-17T13:46:05.082Z,73824
2017-05-17T13:47:15.046Z,50624
2017-05-17T13:48:25.315Z,52928
2017-05-17T13:49:35.595Z,97184
2017-05-17T13:50:45.611Z,88192
2017-05-17T13:51:55.576Z,39936
2017-05-17T13:53:05.233Z,47232
2017-05-17T13:54:24.833Z,31008
2017-05-17T13:55:35.111Z,26400
2017-05-17T13:56:45.603Z,25408
2017-05-17T13:57:55.887Z,26688
2017-05-17T13:59:06.221Z,20864
2017-05-17T14:00:16.187Z,21184
2017-05-17T14:01:25.843Z,21056
2017-05-17T14:02:36.115Z,21824
2017-05-17T14:03:46.394Z,18752
2017-05-17T14:04:56.760Z,20704
2017-05-17T14:06:06.104Z,23392
2017-05-17T14:07:16.386Z,23520
2017-05-17T14:08:26.672Z,37056
2017-05-17T14:09:36.328Z,23200
2017-05-17T14:10:46.287Z,24096
2017-05-17T14:11:56.578Z,25408
2017-05-17T14:13:06.853Z,25664
2017-05-17T14:14:17.141Z,25984
2017-05-17T14:15:26.787Z,26592
2017-05-17T14:16:37.062Z,27488
2017-05-17T14:17:47.342Z,25920
2017-05-17T14:18:57.305Z,23168
2017-05-17T14:20:07.266Z,22944
2017-05-17T14:21:17.228Z,25760
2017-05-17T14:22:27.194Z,28064
2017-05-17T14:23:37.501Z,25632
2017-05-17T14:24:47.782Z,24160
2017-05-17T14:25:57.743Z,28768
2017-05-17T14:27:07.394Z,42240
2017-05-17T14:28:17.679Z,30336
2017-05-17T14:29:27.965Z,24960
2017-05-17T14:30:37.929Z,23136
2017-05-17T14:31:48.212Z,23584
2017-05-17T14:32:58.488Z,25280
2017-05-17T14:34:08.770Z,25696
2017-05-17T14:35:18.732Z,24160
2017-05-17T14:36:28.689Z,23392
2017-05-17T14:37:38.975Z,24096
2017-05-17T14:38:49.253Z,32160
2017-05-17T14:39:59.524Z,40992
2017-05-17T14:41:09.492Z,40992
2017-05-17T14:42:19.810Z,61504
2017-05-17T14:43:30.101Z,58016
2017-05-17T14:44:40.067Z,42112
2017-05-17T14:45:50.366Z,44928
2017-05-17T14:47:00.638Z,50816
2017-05-17T14:48:09.971Z,74496
2017-05-17T14:49:19.624Z,68704
2017-05-17T14:50:29.904Z,65792
2017-05-17T14:51:40.182Z,40960
2017-05-17T14:52:50.469Z,85120
2017-05-17T14:54:00.763Z,43296
2017-05-17T14:55:11.041Z,49632
2017-05-17T14:56:21.323Z,66080
2017-05-17T14:57:31.624Z,42240
2017-05-17T14:58:41.902Z,34912
2017-05-17T14:59:52.183Z,51744
2017-05-17T15:01:02.463Z,65312
2017-05-17T15:02:12.430Z,54752
2017-05-17T15:03:22.710Z,73824
2017-05-17T15:04:32.672Z,94656
2017-05-17T15:05:42.944Z,60928
2017-05-17T15:06:53.278Z,33824
2017-05-17T15:08:03.567Z,22496
2017-05-17T15:09:13.851Z,17216
2017-05-17T15:10:23.503Z,18272
2017-05-17T15:11:33.786Z,21888
2017-05-17T15:12:44.065Z,24608
2017-05-17T15:13:54.352Z,24832
2017-05-17T15:15:04.640Z,21952
2017-05-17T15:16:14.915Z,15972
2017-05-17T15:17:24.878Z,13156
2017-05-17T15:18:35.156Z,11392
2017-05-17T15:19:45.439Z,10552
2017-05-17T15:20:55.766Z,9728
2017-05-17T15:22:06.043Z,9380
2017-05-17T15:23:15.999Z,11064
2017-05-17T15:24:26.278Z,10260
2017-05-17T15:25:36.560Z,9432
2017-05-17T15:26:46.843Z,10244
2017-05-17T15:27:57.124Z,10684
2017-05-17T15:29:07.093Z,11920
2017-05-17T15:30:17.374Z,14060
2017-05-17T15:31:27.654Z,13728
2017-05-17T15:32:37.958Z,12448
2017-05-17T15:33:47.926Z,11528
2017-05-17T15:34:58.202Z,10888
2017-05-17T15:36:08.479Z,10920
2017-05-17T15:37:18.437Z,10876
2017-05-17T15:38:28.718Z,10612
2017-05-17T15:39:38.997Z,10964